Time;durP1;ratioP1;P1;durP2;ratioP2;P2;SDS_P1;SDS_P2;PMS_P1;PMS_P2;Temp;Humidity;BMP_temperature;BMP_pressure;BME280_temperature;BME280_humidity;BME280_pressure;Samples;Min_cycle;Max_cycle;Signal;HPM_P1;HPM_P2
2024/02/17 00:01:35;;;;;;;25.83;17.80;;;;;;;;;;4974968;28;20232;-60
2024/02/17 00:04:02;;;;;;;32.17;22.33;;;;;;;;;;4974341;28;20203;-60
2024/02/17 00:06:29;;;;;;;31.23;20.77;;;;;;;;;;4975115;28;20208;-59
2024/02/17 00:08:56;;;;;;;28.83;21.40;;;;;;;;;;4981739;28;20648;-60
2024/02/17 00:11:25;;;;;;;39.00;27.47;;;;;;;;;;5014498;28;20268;-60
2024/02/17 00:13:53;;;;;;;31.33;24.63;;;;;;;;;;5013617;28;20199;-60
2024/02/17 00:16:20;;;;;;;24.53;20.43;;;;;;;;;;5014119;28;20210;-60
2024/02/17 00:18:48;;;;;;;33.67;21.07;;;;;;;;;;5014033;28;20264;-60
2024/02/17 00:21:16;;;;;;;25.37;20.63;;;;;;;;;;5013846;28;20641;-60
2024/02/17 00:23:43;;;;;;;27.97;21.77;;;;;;;;;;5013158;28;20205;-60
2024/02/17 00:26:10;;;;;;;29.47;21.70;;;;;;;;;;5007566;28;20193;-60
2024/02/17 00:28:38;;;;;;;31.83;23.93;;;;;;;;;;5008006;28;20256;-59
2024/02/17 00:31:05;;;;;;;29.07;22.33;;;;;;;;;;5013692;28;20304;-60
2024/02/17 00:33:32;;;;;;;29.67;20.60;;;;;;;;;;5012509;28;20264;-60
2024/02/17 00:36:01;;;;;;;24.80;18.90;;;;;;;;;;5013707;28;20205;-60
2024/02/17 00:38:28;;;;;;;27.53;19.30;;;;;;;;;;5013658;28;20234;-60
2024/02/17 00:40:56;;;;;;;24.87;19.33;;;;;;;;;;5013362;28;20638;-60
2024/02/17 00:43:23;;;;;;;26.93;20.23;;;;;;;;;;5001614;28;20196;-60
2024/02/17 00:45:51;;;;;;;25.60;19.27;;;;;;;;;;4993816;28;20203;-59
2024/02/17 00:48:18;;;;;;;23.33;18.60;;;;;;;;;;4993591;28;20286;-60
2024/02/17 00:50:46;;;;;;;21.73;16.20;;;;;;;;;;4993822;28;20255;-60
2024/02/17 00:53:15;;;;;;;20.57;16.87;;;;;;;;;;4992793;28;20746;-60
2024/02/17 00:55:42;;;;;;;18.87;15.07;;;;;;;;;;4993671;28;20211;-60
2024/02/17 00:58:10;;;;;;;20.00;14.60;;;;;;;;;;4993505;28;20206;-60
2024/02/17 01:00:37;;;;;;;20.17;14.73;;;;;;;;;;4993620;28;20649;-60
2024/02/17 01:03:05;;;;;;;16.93;13.40;;;;;;;;;;4992629;28;20238;-60
2024/02/17 01:05:32;;;;;;;18.20;12.47;;;;;;;;;;4993518;28;20255;-60
2024/02/17 01:07:59;;;;;;;16.57;12.87;;;;;;;;;;4993521;28;20584;-60
2024/02/17 01:10:28;;;;;;;14.47;11.07;;;;;;;;;;4993285;28;20223;-60
2024/02/17 01:12:55;;;;;;;13.83;11.17;;;;;;;;;;4993363;28;20211;-60
2024/02/17 01:15:22;;;;;;;14.50;10.63;;;;;;;;;;4992922;28;20199;-60
2024/02/17 01:17:50;;;;;;;12.43;10.07;;;;;;;;;;4991149;28;20207;-60
2024/02/17 01:20:17;;;;;;;11.60;9.77;;;;;;;;;;4993196;28;20310;-60
2024/02/17 01:22:44;;;;;;;9.77;8.97;;;;;;;;;;4991229;28;20226;-60
2024/02/17 01:25:11;;;;;;;10.30;9.30;;;;;;;;;;4992287;28;20206;-59
2024/02/17 01:27:40;;;;;;;14.27;10.27;;;;;;;;;;4992971;28;20272;-60
2024/02/17 01:30:08;;;;;;;11.70;10.33;;;;;;;;;;4992979;28;20691;-60
2024/02/17 01:32:35;;;;;;;9.53;8.63;;;;;;;;;;4993465;28;20207;-60
2024/02/17 01:35:03;;;;;;;8.37;7.67;;;;;;;;;;4992393;28;20211;-60
2024/02/17 01:37:33;;;;;;;10.90;9.30;;;;;;;;;;4992583;28;20199;-60
2024/02/17 01:40:00;;;;;;;11.03;9.10;;;;;;;;;;4992857;28;20233;-61
2024/02/17 01:42:30;;;;;;;9.23;7.93;;;;;;;;;;5001435;28;20254;-60
2024/02/17 01:44:58;;;;;;;9.57;8.57;;;;;;;;;;5001859;28;20200;-60
2024/02/17 01:47:29;;;;;;;9.03;8.33;;;;;;;;;;5003276;28;20241;-60
2024/02/17 01:49:57;;;;;;;11.27;9.50;;;;;;;;;;5004120;28;20603;-60
2024/02/17 01:52:24;;;;;;;8.70;7.90;;;;;;;;;;5003773;28;20210;-60
2024/02/17 01:54:51;;;;;;;9.30;7.77;;;;;;;;;;5003168;28;20255;-60
2024/02/17 01:57:19;;;;;;;9.33;8.17;;;;;;;;;;5002417;28;20555;-60
2024/02/17 01:59:46;;;;;;;10.57;8.23;;;;;;;;;;4995742;28;20293;-60
2024/02/17 02:02:15;;;;;;;10.00;8.97;;;;;;;;;;4992549;28;20308;-60
2024/02/17 02:04:42;;;;;;;18.90;14.53;;;;;;;;;;4991807;28;20310;-60
2024/02/17 02:07:09;;;;;;;15.60;13.50;;;;;;;;;;4992935;28;20634;-59
2024/02/17 02:09:37;;;;;;;16.67;14.93;;;;;;;;;;4992299;28;20206;-60
2024/02/17 02:12:04;;;;;;;17.00;14.73;;;;;;;;;;4992641;28;20658;-59
2024/02/17 02:14:32;;;;;;;16.23;14.50;;;;;;;;;;4991818;28;20210;-60
2024/02/17 02:16:59;;;;;;;18.77;13.60;;;;;;;;;;4992894;28;20210;-59
2024/02/17 02:19:28;;;;;;;20.23;15.53;;;;;;;;;;4995562;28;20198;-59
2024/02/17 02:21:55;;;;;;;17.10;14.60;;;;;;;;;;5011763;28;20713;-59
2024/02/17 02:24:22;;;;;;;17.23;14.93;;;;;;;;;;5011285;28;20209;-60
2024/02/17 02:26:51;;;;;;;16.17;13.97;;;;;;;;;;5012257;28;20209;-60
2024/02/17 02:29:19;;;;;;;15.87;13.93;;;;;;;;;;5012242;28;20209;-59
2024/02/17 02:31:46;;;;;;;20.70;14.23;;;;;;;;;;5006381;28;20223;-60
2024/02/17 02:34:13;;;;;;;15.40;13.57;;;;;;;;;;4999590;28;20203;-59
2024/02/17 02:36:41;;;;;;;15.03;13.43;;;;;;;;;;4992526;28;20213;-60
2024/02/17 02:39:09;;;;;;;14.73;13.10;;;;;;;;;;4992418;28;20210;-59
2024/02/17 02:41:36;;;;;;;15.30;12.87;;;;;;;;;;4994323;28;20234;-59
2024/02/17 02:44:05;;;;;;;15.50;13.50;;;;;;;;;;4991718;28;20210;-60
2024/02/17 02:46:35;;;;;;;18.93;12.93;;;;;;;;;;4992133;28;20209;-60
2024/02/17 02:49:02;;;;;;;14.13;12.20;;;;;;;;;;5005007;28;20288;-59
2024/02/17 02:51:30;;;;;;;16.93;13.47;;;;;;;;;;5015274;28;20225;-60
2024/02/17 02:53:57;;;;;;;12.90;11.10;;;;;;;;;;5014902;28;20262;-59
2024/02/17 02:56:25;;;;;;;16.73;12.57;;;;;;;;;;5015865;28;20209;-60
2024/02/17 02:58:52;;;;;;;13.97;12.23;;;;;;;;;;5015656;28;20201;-60
2024/02/17 03:01:21;;;;;;;15.57;11.73;;;;;;;;;;5016898;28;20238;-59
2024/02/17 03:03:49;;;;;;;14.47;12.47;;;;;;;;;;5014353;28;20210;-59
2024/02/17 03:06:16;;;;;;;13.40;12.07;;;;;;;;;;5014329;28;20653;-59
2024/02/17 03:08:43;;;;;;;14.17;11.73;;;;;;;;;;5015116;28;20214;-59
2024/02/17 03:11:15;;;;;;;18.93;13.67;;;;;;;;;;5015093;28;20222;-60
2024/02/17 03:13:42;;;;;;;15.00;12.57;;;;;;;;;;5014452;28;20282;-60
2024/02/17 03:16:09;;;;;;;15.30;13.53;;;;;;;;;;5015002;28;20584;-60
2024/02/17 03:18:38;;;;;;;18.70;13.37;;;;;;;;;;5011675;28;20669;-60
2024/02/17 03:21:05;;;;;;;18.33;14.00;;;;;;;;;;4995576;28;20363;-60
2024/02/17 03:23:32;;;;;;;20.40;13.87;;;;;;;;;;4992387;28;20224;-60
2024/02/17 03:26:00;;;;;;;17.40;13.77;;;;;;;;;;4995364;28;20207;-60
2024/02/17 03:28:27;;;;;;;17.27;13.40;;;;;;;;;;4993199;28;20704;-59
2024/02/17 03:30:54;;;;;;;16.87;13.87;;;;;;;;;;4995120;28;20238;-60
2024/02/17 03:33:21;;;;;;;18.00;14.90;;;;;;;;;;4994206;28;20198;-59
2024/02/17 03:35:50;;;;;;;17.00;14.83;;;;;;;;;;5001511;28;20209;-60
2024/02/17 03:38:17;;;;;;;20.47;15.63;;;;;;;;;;5014137;28;20245;-60
2024/02/17 03:40:45;;;;;;;16.70;14.97;;;;;;;;;;5014635;28;20297;-59
2024/02/17 03:43:12;;;;;;;18.40;14.73;;;;;;;;;;5013721;28;20221;-60
2024/02/17 03:45:39;;;;;;;17.60;15.43;;;;;;;;;;5014470;28;20205;-60
2024/02/17 03:48:07;;;;;;;18.03;15.97;;;;;;;;;;5014491;28;20210;-60
2024/02/17 03:50:34;;;;;;;19.50;15.63;;;;;;;;;;5014533;28;20229;-60
2024/02/17 03:53:03;;;;;;;16.40;14.67;;;;;;;;;;4995358;28;20199;-60
2024/02/17 03:55:30;;;;;;;19.00;15.47;;;;;;;;;;4994909;28;20219;-60
2024/02/17 03:57:57;;;;;;;23.57;15.53;;;;;;;;;;4994642;28;20240;-60
2024/02/17 04:00:24;;;;;;;16.43;14.83;;;;;;;;;;4994268;28;20230;-60
2024/02/17 04:02:51;;;;;;;23.73;15.43;;;;;;;;;;4994748;28;20229;-59
2024/02/17 04:05:19;;;;;;;20.57;17.13;;;;;;;;;;4993872;28;20635;-59
2024/02/17 04:07:46;;;;;;;21.70;17.07;;;;;;;;;;4995049;28;20210;-59
2024/02/17 04:10:15;;;;;;;29.03;22.03;;;;;;;;;;4994193;28;20222;-59
2024/02/17 04:12:42;;;;;;;31.83;22.23;;;;;;;;;;4996137;28;20202;-60
2024/02/17 04:15:10;;;;;;;25.00;18.47;;;;;;;;;;4993923;28;20691;-61
2024/02/17 04:17:38;;;;;;;19.93;17.10;;;;;;;;;;4994507;28;20237;-60
2024/02/17 04:20:06;;;;;;;17.80;15.93;;;;;;;;;;4994425;28;20226;-60
2024/02/17 04:22:33;;;;;;;21.67;17.33;;;;;;;;;;4994326;28;20230;-59
2024/02/17 04:25:00;;;;;;;22.23;17.10;;;;;;;;;;5000277;28;20203;-59
2024/02/17 04:27:31;;;;;;;18.23;15.60;;;;;;;;;;5014388;28;20229;-60
2024/02/17 04:29:59;;;;;;;20.83;16.23;;;;;;;;;;5014041;28;20233;-60
2024/02/17 04:32:30;;;;;;;18.07;16.07;;;;;;;;;;5015146;28;20228;-60
2024/02/17 04:34:57;;;;;;;21.83;15.87;;;;;;;;;;5012861;28;20205;-60
2024/02/17 04:37:28;;;;;;;17.90;14.40;;;;;;;;;;5013500;28;20207;-60
2024/02/17 04:39:56;;;;;;;17.03;14.93;;;;;;;;;;5013369;28;20237;-60
2024/02/17 04:42:23;;;;;;;17.67;14.30;;;;;;;;;;5012339;28;20304;-60
2024/02/17 04:44:52;;;;;;;18.17;16.17;;;;;;;;;;5004490;28;20210;-60
2024/02/17 04:47:20;;;;;;;20.63;14.70;;;;;;;;;;4993951;28;20254;-60
2024/02/17 04:49:47;;;;;;;18.17;15.20;;;;;;;;;;4993662;28;20226;-60
2024/02/17 04:52:14;;;;;;;26.00;16.83;;;;;;;;;;4993903;28;20626;-59
2024/02/17 04:54:41;;;;;;;19.93;16.43;;;;;;;;;;4992911;28;20207;-59
2024/02/17 04:57:09;;;;;;;16.67;14.97;;;;;;;;;;4994428;28;20206;-60
2024/02/17 04:59:36;;;;;;;20.83;15.37;;;;;;;;;;5013288;28;20265;-60
2024/02/17 05:02:05;;;;;;;19.47;15.77;;;;;;;;;;5013232;28;20225;-59
2024/02/17 05:04:32;;;;;;;19.87;15.60;;;;;;;;;;5012186;28;20202;-60
2024/02/17 05:07:00;;;;;;;17.40;14.70;;;;;;;;;;5013024;28;20684;-60
2024/02/17 05:09:28;;;;;;;17.93;14.93;;;;;;;;;;5013016;28;20261;-60
2024/02/17 05:11:55;;;;;;;19.17;15.20;;;;;;;;;;5006990;28;20626;-59
2024/02/17 05:14:23;;;;;;;16.60;14.47;;;;;;;;;;4992746;28;20212;-60
2024/02/17 05:16:50;;;;;;;20.17;15.53;;;;;;;;;;4993572;28;20261;-60
2024/02/17 05:19:18;;;;;;;18.93;14.87;;;;;;;;;;4993259;28;20231;-60
2024/02/17 05:21:46;;;;;;;17.57;15.80;;;;;;;;;;4993153;28;20286;-59
2024/02/17 05:24:13;;;;;;;18.50;15.20;;;;;;;;;;4992356;28;20253;-60
2024/02/17 05:26:41;;;;;;;19.17;15.77;;;;;;;;;;4993221;28;20641;-60
2024/02/17 05:29:08;;;;;;;18.37;15.63;;;;;;;;;;4991858;28;20201;-59
2024/02/17 05:31:37;;;;;;;19.77;16.67;;;;;;;;;;5007953;28;20267;-59
2024/02/17 05:34:04;;;;;;;18.13;16.27;;;;;;;;;;5009486;28;20201;-60
2024/02/17 05:36:32;;;;;;;22.13;15.23;;;;;;;;;;5012633;28;20201;-59
2024/02/17 05:39:00;;;;;;;19.10;17.10;;;;;;;;;;5012440;28;20244;-60
2024/02/17 05:41:27;;;;;;;19.37;16.33;;;;;;;;;;5012473;28;20225;-60
2024/02/17 05:43:54;;;;;;;18.67;16.67;;;;;;;;;;5011534;28;20225;-60
2024/02/17 05:46:23;;;;;;;17.17;15.43;;;;;;;;;;4995365;28;20257;-60
2024/02/17 05:48:51;;;;;;;18.83;15.03;;;;;;;;;;4992890;28;20199;-60
2024/02/17 05:51:18;;;;;;;18.17;16.23;;;;;;;;;;4992642;28;20223;-59
2024/02/17 05:53:47;;;;;;;21.00;16.43;;;;;;;;;;4991834;28;20909;-59
2024/02/17 05:56:14;;;;;;;19.63;17.63;;;;;;;;;;4992780;28;20286;-60
2024/02/17 05:58:42;;;;;;;23.87;17.53;;;;;;;;;;4992604;28;20206;-59
2024/02/17 06:01:09;;;;;;;19.43;16.50;;;;;;;;;;4992836;28;20719;-60
2024/02/17 06:03:36;;;;;;;23.10;16.33;;;;;;;;;;4991733;28;20293;-60
2024/02/17 06:06:03;;;;;;;19.20;15.73;;;;;;;;;;4992681;28;20637;-60
2024/02/17 06:08:31;;;;;;;19.77;17.07;;;;;;;;;;4992530;28;20207;-60
2024/02/17 06:10:59;;;;;;;21.47;16.17;;;;;;;;;;4992277;28;20276;-60
2024/02/17 06:13:28;;;;;;;19.47;15.23;;;;;;;;;;4991565;28;20204;-60
2024/02/17 06:15:55;;;;;;;17.80;16.00;;;;;;;;;;4992460;28;20213;-59
2024/02/17 06:21:14;;;;;;;18.93;16.83;;;;;;;;;;4996292;28;20755;-59
2024/02/17 06:23:43;;;;;;;19.70;17.60;;;;;;;;;;5011404;28;20263;-60
2024/02/17 06:26:22;;;;;;;20.33;17.17;;;;;;;;;;5016305;28;20250;-60
2024/02/17 06:28:49;;;;;;;17.70;15.93;;;;;;;;;;5013915;28;20213;-60
2024/02/17 06:31:16;;;;;;;21.37;17.80;;;10.10;99.90;;;;;;5013627;28;20659;-60
2024/02/17 06:33:44;;;;;;;18.93;16.53;;;;;;;;;;5015105;28;20210;-60
2024/02/17 06:36:11;;;;;;;18.80;16.80;;;10.10;99.90;;;;;;5015806;28;20677;-59
2024/02/17 06:38:38;;;;;;;19.40;17.15;;;10.20;99.90;;;;;;5013913;28;20463;-59
2024/02/17 06:41:05;;;;;;;17.93;15.60;;;;;;;;;;5015500;28;20264;-60
2024/02/17 06:43:34;;;;;;;19.23;16.00;;;10.20;99.90;;;;;;5008407;28;20222;-60
2024/02/17 06:46:01;;;;;;;18.07;16.17;;;10.20;99.90;;;;;;4996485;28;20258;-60
2024/02/17 06:48:28;;;;;;;17.53;15.73;;;10.20;99.90;;;;;;4995840;28;20251;-60
2024/02/17 06:50:55;;;;;;;19.13;17.17;;;10.20;99.90;;;;;;4995888;28;20228;-60
2024/02/17 06:53:22;;;;;;;22.50;17.20;;;10.20;99.90;;;;;;4995185;28;20209;-60
2024/02/17 06:55:49;;;;;;;17.33;15.73;;;10.30;99.90;;;;;;4996193;28;20249;-62
2024/02/17 06:58:16;;;;;;;18.50;16.60;;;10.20;99.90;;;;;;4996272;28;20206;-62
2024/02/17 07:00:44;;;;;;;23.20;18.87;;;;;;;;;;5010012;28;20232;-62
2024/02/17 07:03:12;;;;;;;26.00;21.30;;;;;;;;;;5017442;28;20275;-61
2024/02/17 07:05:40;;;;;;;23.00;18.47;;;9.80;99.90;;;;;;5015300;28;20206;-62
2024/02/17 07:08:08;;;;;;;23.13;18.80;;;10.30;99.90;;;;;;5015317;28;20294;-64
2024/02/17 07:10:36;;;;;;;18.47;16.00;;;;;;;;;;5015165;28;20644;-63
2024/02/17 07:13:04;;;;;;;22.07;17.47;;;;;;;;;;5014508;28;20226;-63
2024/02/17 07:15:31;;;;;;;19.57;17.03;;;;;;;;;;5011207;28;20709;-62
2024/02/17 07:18:01;;;;;;;19.63;15.53;;;;;;;;;;4995507;28;20258;-63
2024/02/17 07:20:29;;;;;;;18.10;15.43;;;;;;;;;;4995419;28;20799;-63
2024/02/17 07:22:57;;;;;;;19.67;15.17;;;;;;;;;;4995508;28;20268;-62
2024/02/17 07:25:24;;;;;;;17.27;14.60;;;;;;;;;;4994617;28;20704;-63
2024/02/17 07:27:51;;;;;;;14.80;13.50;;;;;;;;;;4995300;28;20233;-61
2024/02/17 07:30:19;;;;;;;21.23;15.47;;;;;;;;;;4994858;28;20780;-60
2024/02/17 07:32:46;;;;;;;17.23;15.27;;;;;;;;;;4993900;28;20206;-61
2024/02/17 07:35:14;;;;;;;18.50;14.67;;;;;;;;;;4993863;28;20277;-60
2024/02/17 07:37:43;;;;;;;17.63;15.80;;;;;;;;;;4991073;28;20448;-60
2024/02/17 07:40:11;;;;;;;21.00;14.87;;;;;;;;;;4993183;28;20261;-60
2024/02/17 07:42:38;;;;;;;16.07;14.37;;;;;;;;;;4993086;28;20678;-60
2024/02/17 07:45:06;;;;;;;14.20;12.83;;;;;;;;;;4992212;28;20212;-60
2024/02/17 07:47:33;;;;;;;14.80;12.47;;;;;;;;;;4993085;28;20253;-60
2024/02/17 07:50:03;;;;;;;14.30;12.80;;;;;;;;;;5006839;28;20277;-60
2024/02/17 07:52:32;;;;;;;18.03;15.60;;;;;;;;;;5012421;28;20669;-60
2024/02/17 07:54:59;;;;;;;17.00;15.20;;;;;;;;;;5012735;28;20248;-60
2024/02/17 07:57:30;;;;;;;17.03;15.23;;;;;;;;;;5014290;28;20667;-60
2024/02/17 07:59:57;;;;;;;20.23;16.53;;;;;;;;;;5014400;28;20240;-60
2024/02/17 08:02:28;;;;;;;21.13;15.53;;;;;;;;;;5013765;28;20292;-60
2024/02/17 08:04:56;;;;;;;20.37;16.47;;;;;;;;;;4974407;28;20274;-60
2024/02/17 08:07:23;;;;;;;17.13;15.13;;;;;;;;;;4975174;28;20208;-60
2024/02/17 08:09:52;;;;;;;23.13;19.53;;;;;;;;;;4975589;28;20230;-60
2024/02/17 08:12:19;;;;;;;18.43;16.63;;;;;;;;;;4975222;28;20211;-60
2024/02/17 08:14:47;;;;;;;20.03;17.67;;;;;;;;;;4974411;28;20202;-60
2024/02/17 08:17:14;;;;;;;20.30;18.20;;;;;;;;;;4976171;28;20719;-60
2024/02/17 08:19:41;;;;;;;19.33;17.33;;;;;;;;;;4984889;28;20257;-60
2024/02/17 08:22:09;;;;;;;22.17;17.33;;;;;;;;;;4994467;28;20221;-60
2024/02/17 08:24:36;;;;;;;19.80;17.07;;;;;;;;;;4993237;28;20225;-60
2024/02/17 08:27:05;;;;;;;19.97;17.53;;;;;;;;;;4994759;28;20210;-60
2024/02/17 08:29:33;;;;;;;19.33;16.63;;;;;;;;;;4994469;28;20258;-60
2024/02/17 08:32:01;;;;;;;22.57;20.23;;;;;;;;;;4994563;28;20228;-60
2024/02/17 08:34:28;;;;;;;21.03;18.80;;;;;;;;;;4993358;28;20681;-60
2024/02/17 08:36:55;;;;;;;19.47;17.67;;;;;;;;;;4995730;28;20589;-60
2024/02/17 08:39:22;;;;;;;18.17;16.17;;;;;;;;;;4994162;28;20262;-60
2024/02/17 08:41:52;;;;;;;22.03;18.07;;;;;;;;;;4994155;28;20254;-60
2024/02/17 08:44:20;;;;;;;19.77;17.57;;;;;;;;;;4993071;28;20230;-60
2024/02/17 08:46:48;;;;;;;20.97;18.60;;;;;;;;;;4993912;28;20252;-60
2024/02/17 08:49:15;;;;;;;20.07;17.63;;;;;;;;;;4993753;28;20265;-60
2024/02/17 08:51:42;;;;;;;19.37;17.43;;;;;;;;;;4997603;28;20227;-60
2024/02/17 08:54:10;;;;;;;23.03;18.80;;;;;;;;;;5012623;28;20247;-60
2024/02/17 08:56:37;;;;;;;20.90;18.70;;;;;;;;;;5013255;28;20690;-60
2024/02/17 08:59:04;;;;;;;24.23;21.70;;;;;;;;;;5013133;28;20631;-60
2024/02/17 09:01:33;;;;;;;31.27;24.73;;;;;;;;;;5012905;28;20280;-60
2024/02/17 09:04:00;;;;;;;26.87;23.07;;;;;;;;;;5012123;28;20226;-60
2024/02/17 09:06:27;;;;;;;25.80;23.20;;;;;;;;;;5012941;28;20222;-60
2024/02/17 09:08:54;;;;;;;33.67;27.27;;;;;;;;;;5012034;28;20255;-60
2024/02/17 09:11:21;;;;;;;25.47;22.87;;;;;;;;;;5012819;28;20280;-60
2024/02/17 09:13:50;;;;;;;35.50;28.43;;;;;;;;;;5012156;28;20203;-60
2024/02/17 09:16:18;;;;;;;33.70;26.67;;;;;;;;;;5012759;28;20208;-60
2024/02/17 09:18:46;;;;;;;31.43;24.27;;;;;;;;;;5012712;28;20210;-60
2024/02/17 09:21:13;;;;;;;24.27;21.47;;;;;;;;;;5012852;28;20220;-60
2024/02/17 09:23:41;;;;;;;22.00;19.57;;;;;;;;;;5011808;28;20264;-60
2024/02/17 09:26:08;;;;;;;20.37;18.30;;;;;;;;;;5011073;28;20202;-60
2024/02/17 09:28:36;;;;;;;21.77;19.57;;;;;;;;;;5012602;28;20206;-60
2024/02/17 09:31:03;;;;;;;21.13;18.57;;;;;;;;;;5012352;28;20729;-60
2024/02/17 09:33:30;;;;;;;19.67;17.67;;;;;;;;;;5011906;28;20209;-60
2024/02/17 09:35:59;;;;;;;19.93;17.40;;;;;;;;;;5012652;28;20259;-60
2024/02/17 09:38:26;;;;;;;20.03;17.97;;;;;;;;;;5010325;28;20748;-60
2024/02/17 09:40:54;;;;;;;20.93;17.10;;;;;;;;;;5007780;28;20221;-60
2024/02/17 09:43:23;;;;;;;24.90;18.73;;;;;;;;;;4989608;28;20215;-60
2024/02/17 09:45:51;;;;;;;19.77;17.97;;;;;;;;;;5012231;28;20241;-60
2024/02/17 09:48:19;;;;;;;18.63;16.63;;;;;;;;;;5013163;28;20210;-60
2024/02/17 09:50:49;;;;;;;20.70;18.67;;;;;;;;;;5012371;28;20258;-60
2024/02/17 09:53:18;;;;;;;20.27;18.03;;;;;;;;;;5011782;28;20205;-60
2024/02/17 09:55:46;;;;;;;21.87;19.57;;;;;;;;;;5012657;28;20213;-60
2024/02/17 09:58:13;;;;;;;25.00;19.50;;;;;;;;;;5004381;28;20241;-60
2024/02/17 10:00:41;;;;;;;22.80;18.40;;;;;;;;;;4992298;28;20591;-60
2024/02/17 10:03:09;;;;;;;20.30;18.10;;;;;;;;;;4991666;28;20206;-61
2024/02/17 10:05:36;;;;;;;20.50;18.40;;;;;;;;;;4992334;28;20222;-60
2024/02/17 10:08:05;;;;;;;25.90;22.60;;;;;;;;;;4992469;28;20210;-61
2024/02/17 10:10:35;;;;;;;25.17;21.17;;;;;;;;;;4992293;28;20266;-60
2024/02/17 10:13:02;;;;;;;31.93;25.17;;;;;;;;;;4992131;28;20214;-61
2024/02/17 10:15:31;;;;;;;10.67;9.80;;;;;;;;;;4993006;28;20203;-61
2024/02/17 10:17:58;;;;;;;10.33;8.27;;;;;;;;;;4991995;28;20213;-60
2024/02/17 10:20:25;;;;;;;5.33;5.03;;;;;;;;;;4992340;28;20230;-61
2024/02/17 10:22:52;;;;;;;4.83;4.57;;;;;;;;;;4992466;28;20272;-60
2024/02/17 10:25:20;;;;;;;6.00;5.50;;;;;;;;;;4991493;28;20268;-60
2024/02/17 10:27:48;;;;;;;6.83;5.17;;;;;;;;;;4992610;28;20266;-60
2024/02/17 10:30:17;;;;;;;4.83;4.53;;;;;;;;;;4992290;28;20282;-60
2024/02/17 10:32:44;;;;;;;5.97;5.37;;;;;;;;;;4992572;28;20577;-60
2024/02/17 10:35:12;;;;;;;6.10;5.50;;;;;;;;;;4991420;28;20201;-60
2024/02/17 10:37:40;;;;;;;4.33;4.10;;;;;;;;;;4992356;28;20199;-60
2024/02/17 10:40:08;;;;;;;5.37;4.97;;;;;;;;;;4992413;28;20226;-60
2024/02/17 10:42:35;;;;;;;3.83;3.63;;;;;;;;;;4992573;28;20205;-60
2024/02/17 10:45:04;;;;;;;3.40;3.27;;;;;;;;;;4991645;28;20666;-60
2024/02/17 10:47:34;;;;;;;3.53;3.17;;;;;;;;;;4997324;28;20666;-60
2024/02/17 10:50:05;;;;;;;3.90;3.70;;;;;;;;;;4992116;28;20257;-60
2024/02/17 10:52:37;;;;;;;3.10;2.90;;;;;;;;;;4992436;28;20244;-60
2024/02/17 10:55:07;;;;;;;3.37;3.17;;;;;;;;;;4991661;28;20206;-61
2024/02/17 10:57:39;;;;;;;3.13;2.93;;;;;;;;;;4992474;28;20701;-60
2024/02/17 11:00:10;;;;;;;3.20;2.97;;;;;;;;;;4992255;28;20240;-59
2024/02/17 11:02:37;;;;;;;3.17;2.97;;;;;;;;;;4992060;28;20264;-58
2024/02/17 11:05:05;;;;;;;2.63;2.53;;;;;;;;;;4993694;28;20214;-59
2024/02/17 11:07:32;;;;;;;2.47;2.37;;;;;;;;;;5014510;28;20206;-59
2024/02/17 11:10:04;;;;;;;2.60;2.50;;;;;;;;;;5011616;28;20229;-58
2024/02/17 11:12:31;;;;;;;2.30;2.20;;;;;;;;;;5014760;28;20272;-58
2024/02/17 11:15:00;;;;;;;2.00;1.93;;;;;;;;;;5014450;28;20223;-59
2024/02/17 11:17:36;;;;;;;1.83;1.50;;;;;;;;;;5009938;28;20198;-58
2024/02/17 11:20:07;;;;;;;1.77;1.67;;;;;;;;;;4995438;28;20749;-59
2024/02/17 11:22:35;;;;;;;2.00;1.90;;;;;;;;;;4995593;28;20207;-59
2024/02/17 11:25:03;;;;;;;1.50;1.40;;;;;;;;;;4994595;28;20598;-59
2024/02/17 11:27:33;;;;;;;1.63;1.53;;;;;;;;;;4995382;28;20231;-58
2024/02/17 11:30:00;;;;;;;1.10;1.10;;;;;;;;;;4995224;28;20230;-57
2024/02/17 11:32:31;;;;;;;2.00;1.90;;;;;;;;;;4995365;28;20210;-57
2024/02/17 11:35:00;;;;;;;2.07;1.97;;;;;;;;;;5006483;28;20250;-57
2024/02/17 11:37:30;;;;;;;1.60;1.53;;;;;;;;;;5014795;28;20212;-57
2024/02/17 11:39:57;;;;;;;2.47;2.03;;;;;;;;;;5014716;28;20224;-57
2024/02/17 11:42:28;;;;;;;2.60;2.07;;;;;;;;;;5014596;28;20279;-57
2024/02/17 11:44:56;;;;;;;1.93;1.83;;;;;;;;;;5006997;28;20628;-57
2024/02/17 11:47:29;;;;;;;1.80;1.70;;;;;;;;;;5014183;28;20686;-57
2024/02/17 11:50:11;;;;;;;3.20;2.30;;;;;;;;;;5011913;28;20229;-57
2024/02/17 11:52:43;;;;;;;3.37;2.57;;;;;;;;;;5014447;28;20243;-57
2024/02/17 11:55:11;;;;;;;3.07;2.77;;;;;;;;;;5013832;28;20208;-57
2024/02/17 11:57:41;;;;;;;2.50;2.30;;;;;;;;;;5009291;28;20667;-57
2024/02/17 12:00:11;;;;;;;3.57;3.20;;;;;;;;;;4994888;28;20639;-57
2024/02/17 12:02:39;;;;;;;3.23;2.07;;;;;;;;;;4994811;28;20214;-57
2024/02/17 12:05:07;;;;;;;2.50;2.30;;;;;;;;;;4993736;28;20250;-57
2024/02/17 12:07:34;;;;;;;2.40;2.13;;;;;;;;;;4994516;28;20207;-57
2024/02/17 12:10:03;;;;;;;2.10;2.00;;;;;;;;;;4994837;28;20225;-57
2024/02/17 12:12:30;;;;;;;2.23;2.13;;;;;;;;;;4994813;28;20262;-57
2024/02/17 12:14:58;;;;;;;3.13;2.87;;;;;;;;;;5006332;28;20265;-57
2024/02/17 12:17:25;;;;;;;2.43;1.73;;;;;;;;;;5014149;28;20681;-57
2024/02/17 12:19:52;;;;;;;2.57;2.37;;;;;;;;;;5013853;28;20221;-57
2024/02/17 12:22:19;;;;;;;3.23;2.73;;;;;;;;;;5013804;28;20199;-57
2024/02/17 12:24:47;;;;;;;2.90;2.60;;;;;;;;;;5014114;28;20215;-57
2024/02/17 12:27:16;;;;;;;2.70;2.50;;;;;;;;;;5014429;28;20755;-60
2024/02/17 12:29:50;;;;;;;4.53;3.87;;;;;;;;;;5013896;28;20205;-57
2024/02/17 12:32:21;;;;;;;5.23;3.57;;;;;;;;;;4996057;28;20223;-57
2024/02/17 12:34:48;;;;;;;5.63;4.23;;;;;;;;;;4993312;28;20682;-57
2024/02/17 12:37:18;;;;;;;6.43;4.83;;;;;;;;;;4994772;28;20206;-58
2024/02/17 12:39:46;;;;;;;4.57;3.40;;;;;;;;;;4994478;28;20731;-57
2024/02/17 12:42:14;;;;;;;6.23;4.90;;;;;;;;;;4995427;28;20264;-57
2024/02/17 12:44:42;;;;;;;4.63;4.23;;;;;;;;;;4995338;28;20280;-58
2024/02/17 12:47:16;;;;;;;4.13;3.73;;;;;;;;;;4994942;28;20205;-57
2024/02/17 12:49:44;;;;;;;5.00;4.53;;;;;;;;;;4993811;28;20267;-57
2024/02/17 12:52:12;;;;;;;6.07;4.33;;;;;;;;;;4993976;28;20204;-57
2024/02/17 12:54:39;;;;;;;5.67;4.53;;;;;;;;;;4993600;28;20292;-58
2024/02/17 12:57:07;;;;;;;5.13;4.10;;;;;;;;;;5013373;28;20264;-57
2024/02/17 12:59:34;;;;;;;6.67;4.30;;;;;;;;;;5013129;28;20211;-57
2024/02/17 13:02:03;;;;;;;6.40;5.20;;;;;;;;;;5013274;28;20560;-57
2024/02/17 13:04:30;;;;;;;5.70;5.20;;;;;;;;;;5011055;28;20198;-58
2024/02/17 13:06:57;;;;;;;5.17;4.73;;;;;;;;;;5013242;28;20201;-57
2024/02/17 13:09:25;;;;;;;7.10;5.57;;;;;;;;;;5013024;28;20735;-57
2024/02/17 13:11:52;;;;;;;5.07;3.87;;;;;;;;;;5012992;28;20683;-58
2024/02/17 13:14:19;;;;;;;5.40;4.57;;;;;;;;;;5012264;28;20202;-57
2024/02/17 13:16:46;;;;;;;5.50;4.63;;;;;;;;;;5012911;28;20213;-58
2024/02/17 13:19:15;;;;;;;6.87;4.60;;;;;;;;;;5012976;28;20208;-57
2024/02/17 13:21:43;;;;;;;4.90;4.47;;;;;;;;;;4998635;28;20217;-58
2024/02/17 13:24:12;;;;;;;6.27;5.77;;;;;;;;;;4992433;28;20209;-58
2024/02/17 13:26:39;;;;;;;5.57;4.57;;;;;;;;;;4993095;28;20266;-57
2024/02/17 13:29:07;;;;;;;5.00;4.60;;;;;;;;;;4993400;28;20204;-57
2024/02/17 13:31:34;;;;;;;5.97;5.27;;;;;;;;;;4993060;28;20226;-57
2024/02/17 13:34:02;;;;;;;6.57;4.87;;;;;;;;;;4991492;28;20621;-58
2024/02/17 13:36:30;;;;;;;5.97;5.20;;;;;;;;;;4993621;28;20196;-59
2024/02/17 13:38:57;;;;;;;5.37;4.90;;;;;;;;;;4973481;28;20200;-58
2024/02/17 13:41:24;;;;;;;6.60;4.10;;;;;;;;;;4973389;28;20285;-57
2024/02/17 13:43:52;;;;;;;6.07;3.73;;;;;;;;;;4972838;28;20207;-57
2024/02/17 13:46:19;;;;;;;6.80;5.93;;;;;;;;;;4989396;28;20737;-57
2024/02/17 13:48:47;;;;;;;4.70;4.30;;;;;;;;;;5010322;28;20255;-57
2024/02/17 13:51:14;;;;;;;5.03;4.23;;;;;;;;;;5012212;28;20314;-57
2024/02/17 13:53:44;;;;;;;5.03;4.00;;;;;;;;;;5004688;28;20339;-57
2024/02/17 13:56:12;;;;;;;4.73;3.87;;;;;;;;;;5006834;28;20281;-57
2024/02/17 13:58:39;;;;;;;6.20;5.33;;;;;;;;;;5012427;28;20205;-57
2024/02/17 14:01:07;;;;;;;5.23;4.73;;;;;;;;;;5012203;28;20718;-57
2024/02/17 14:03:34;;;;;;;3.70;3.43;;;;;;;;;;5011265;28;20206;-58
2024/02/17 14:06:01;;;;;;;4.60;4.10;;;;;;;;;;5011982;28;20264;-58
2024/02/17 14:08:29;;;;;;;4.30;4.00;;;;;;;;;;5004885;28;20203;-58
2024/02/17 14:10:57;;;;;;;5.00;4.50;;;;;;;;;;4992658;28;20227;-57
2024/02/17 14:13:24;;;;;;;3.63;3.33;;;;;;;;;;4991603;28;20214;-58
2024/02/17 14:15:52;;;;;;;4.57;2.90;;;;;;;;;;4992380;28;20626;-58
2024/02/17 14:18:22;;;;;;;4.33;4.03;;;;;;;;;;4992518;28;20262;-57
2024/02/17 14:20:50;;;;;;;4.30;3.97;;;;;;;;;;4992229;28;20223;-58
2024/02/17 14:23:17;;;;;;;3.90;3.57;;;;;;;;;;4991795;28;20198;-58
2024/02/17 14:25:44;;;;;;;3.93;3.57;;;;;;;;;;5009013;28;20728;-57
2024/02/17 14:28:13;;;;;;;3.80;3.50;;;;;;;;;;5012502;28;20202;-57